sensor_id;sensor_type;location;lat;lon;timestamp;pressure;altitude;pressure_sealevel;temperature;humidity
61035;BME280;46916;40.564;-7.958;2022-09-24T00:01:48;97470.63;;;18.88;71.75
61035;BME280;46916;40.564;-7.958;2022-09-24T00:03:58;97470.44;;;18.89;72.01
61035;BME280;46916;40.564;-7.958;2022-09-24T00:06:03;97476.56;;;18.90;72.04
61035;BME280;46916;40.564;-7.958;2022-09-24T00:08:07;97471.09;;;18.91;71.94
61035;BME280;46916;40.564;-7.958;2022-09-24T00:10:08;97466.31;;;18.87;71.91
61035;BME280;46916;40.564;-7.958;2022-09-24T00:12:09;97467.50;;;18.84;72.29
61035;BME280;46916;40.564;-7.958;2022-09-24T00:14:12;97465.50;;;18.86;72.51
61035;BME280;46916;40.564;-7.958;2022-09-24T00:16:15;97463.84;;;18.85;72.01
61035;BME280;46916;40.564;-7.958;2022-09-24T00:18:17;97460.38;;;18.85;71.95
61035;BME280;46916;40.564;-7.958;2022-09-24T00:20:18;97464.22;;;18.82;72.15
61035;BME280;46916;40.564;-7.958;2022-09-24T00:22:22;97463.38;;;18.81;72.16
61035;BME280;46916;40.564;-7.958;2022-09-24T00:24:22;97464.03;;;18.84;72.29
61035;BME280;46916;40.564;-7.958;2022-09-24T00:26:42;97463.84;;;18.85;72.45
61035;BME280;46916;40.564;-7.958;2022-09-24T00:28:50;97460.81;;;18.88;72.11
61035;BME280;46916;40.564;-7.958;2022-09-24T00:30:51;97459.34;;;18.86;72.00
61035;BME280;46916;40.564;-7.958;2022-09-24T00:32:51;97461.19;;;18.85;72.01
61035;BME280;46916;40.564;-7.958;2022-09-24T00:34:52;97465.03;;;18.83;71.89
61035;BME280;46916;40.564;-7.958;2022-09-24T00:36:53;97472.53;;;18.79;71.99
61035;BME280;46916;40.564;-7.958;2022-09-24T00:38:57;97475.53;;;18.76;72.57
61035;BME280;46916;40.564;-7.958;2022-09-24T00:40:59;97470.22;;;18.76;72.43
61035;BME280;46916;40.564;-7.958;2022-09-24T00:43:00;97467.22;;;18.79;72.14
61035;BME280;46916;40.564;-7.958;2022-09-24T00:45:02;97465.41;;;18.79;71.99
61035;BME280;46916;40.564;-7.958;2022-09-24T00:47:03;97466.41;;;18.78;71.86
61035;BME280;46916;40.564;-7.958;2022-09-24T00:49:16;97462.94;;;18.78;72.17
61035;BME280;46916;40.564;-7.958;2022-09-24T00:51:20;97460.44;;;18.76;71.95
61035;BME280;46916;40.564;-7.958;2022-09-24T00:53:23;97460.63;;;18.75;72.51
61035;BME280;46916;40.564;-7.958;2022-09-24T00:55:28;97456.97;;;18.76;72.30
61035;BME280;46916;40.564;-7.958;2022-09-24T00:57:30;97458.44;;;18.78;71.79
61035;BME280;46916;40.564;-7.958;2022-09-24T00:59:31;97467.38;;;18.77;71.89
61035;BME280;46916;40.564;-7.958;2022-09-24T01:01:32;97452.22;;;18.71;72.19
61035;BME280;46916;40.564;-7.958;2022-09-24T01:03:36;97458.34;;;18.72;72.27
61035;BME280;46916;40.564;-7.958;2022-09-24T01:05:40;97459.16;;;18.72;72.24
61035;BME280;46916;40.564;-7.958;2022-09-24T01:07:41;97460.34;;;18.70;72.40
61035;BME280;46916;40.564;-7.958;2022-09-24T01:09:42;97454.34;;;18.68;72.48
61035;BME280;46916;40.564;-7.958;2022-09-24T01:21:53;97446.66;;;18.58;72.30
61035;BME280;46916;40.564;-7.958;2022-09-24T01:24:32;97449.47;;;18.56;72.41
61035;BME280;46916;40.564;-7.958;2022-09-24T01:27:02;97459.53;;;18.46;72.83
61035;BME280;46916;40.564;-7.958;2022-09-24T01:32:01;97449.88;;;18.53;73.00
61035;BME280;46916;40.564;-7.958;2022-09-24T01:34:06;97446.19;;;18.54;72.92
61035;BME280;46916;40.564;-7.958;2022-09-24T01:36:08;97439.88;;;18.55;72.81
61035;BME280;46916;40.564;-7.958;2022-09-24T01:38:23;97438.88;;;18.56;72.80
61035;BME280;46916;40.564;-7.958;2022-09-24T01:40:27;97431.94;;;18.55;72.75
61035;BME280;46916;40.564;-7.958;2022-09-24T01:42:30;97433.94;;;18.53;72.76
61035;BME280;46916;40.564;-7.958;2022-09-24T01:44:33;97430.28;;;18.54;72.76
61035;BME280;46916;40.564;-7.958;2022-09-24T01:46:37;97435.25;;;18.58;72.69
61035;BME280;46916;40.564;-7.958;2022-09-24T01:48:40;97432.59;;;18.58;72.45
61035;BME280;46916;40.564;-7.958;2022-09-24T01:50:49;97427.78;;;18.53;72.70
61035;BME280;46916;40.564;-7.958;2022-09-24T01:53:04;97428.66;;;18.53;72.84
61035;BME280;46916;40.564;-7.958;2022-09-24T01:55:07;97425.34;;;18.51;72.85
61035;BME280;46916;40.564;-7.958;2022-09-24T01:57:30;97424.97;;;18.54;72.98
61035;BME280;46916;40.564;-7.958;2022-09-24T01:59:43;97423.16;;;18.55;72.57
61035;BME280;46916;40.564;-7.958;2022-09-24T02:01:57;97430.28;;;18.54;72.40
61035;BME280;46916;40.564;-7.958;2022-09-24T02:04:05;97426.50;;;18.49;72.60
61035;BME280;46916;40.564;-7.958;2022-09-24T02:06:09;97428.53;;;18.47;72.72
61035;BME280;46916;40.564;-7.958;2022-09-24T02:08:19;97426.88;;;18.46;72.78
61035;BME280;46916;40.564;-7.958;2022-09-24T02:10:20;97427.03;;;18.44;72.96
61035;BME280;46916;40.564;-7.958;2022-09-24T02:12:32;97426.69;;;18.47;73.15
61035;BME280;46916;40.564;-7.958;2022-09-24T02:14:44;97419.41;;;18.49;72.85
61035;BME280;46916;40.564;-7.958;2022-09-24T02:16:48;97416.09;;;18.47;72.64
61035;BME280;46916;40.564;-7.958;2022-09-24T02:18:53;97422.41;;;18.46;72.72
61035;BME280;46916;40.564;-7.958;2022-09-24T02:20:58;97414.59;;;18.45;72.86
61035;BME280;46916;40.564;-7.958;2022-09-24T02:23:00;97415.47;;;18.45;72.71
61035;BME280;46916;40.564;-7.958;2022-09-24T02:25:04;97399.91;;;18.42;72.92
61035;BME280;46916;40.564;-7.958;2022-09-24T02:27:05;97405.22;;;18.42;72.84
61035;BME280;46916;40.564;-7.958;2022-09-24T02:29:06;97411.69;;;18.40;72.76
61035;BME280;46916;40.564;-7.958;2022-09-24T02:31:11;97404.94;;;18.37;73.04
61035;BME280;46916;40.564;-7.958;2022-09-24T02:33:14;97405.44;;;18.32;73.22
61035;BME280;46916;40.564;-7.958;2022-09-24T02:35:34;97409.09;;;18.31;73.52
61035;BME280;46916;40.564;-7.958;2022-09-24T02:37:42;97408.53;;;18.21;73.83
61035;BME280;46916;40.564;-7.958;2022-09-24T02:39:43;97404.28;;;18.12;74.34
61035;BME280;46916;40.564;-7.958;2022-09-24T02:41:45;97401.00;;;18.10;74.52
61035;BME280;46916;40.564;-7.958;2022-09-24T02:43:47;97402.47;;;18.13;74.47
61035;BME280;46916;40.564;-7.958;2022-09-24T02:45:48;97392.97;;;18.18;74.19
61035;BME280;46916;40.564;-7.958;2022-09-24T02:47:49;97393.63;;;18.20;73.92
61035;BME280;46916;40.564;-7.958;2022-09-24T02:49:49;97390.81;;;18.22;74.10
61035;BME280;46916;40.564;-7.958;2022-09-24T02:51:50;97385.97;;;18.25;73.83
61035;BME280;46916;40.564;-7.958;2022-09-24T02:53:51;97387.41;;;18.28;73.77
61035;BME280;46916;40.564;-7.958;2022-09-24T02:55:52;97386.03;;;18.17;74.12
61035;BME280;46916;40.564;-7.958;2022-09-24T02:57:52;97377.63;;;18.14;74.05
61035;BME280;46916;40.564;-7.958;2022-09-24T02:59:54;97375.44;;;18.17;74.26
61035;BME280;46916;40.564;-7.958;2022-09-24T03:01:54;97377.91;;;18.19;74.10
61035;BME280;46916;40.564;-7.958;2022-09-24T03:03:55;97373.97;;;18.15;74.19
61035;BME280;46916;40.564;-7.958;2022-09-24T03:05:56;97372.47;;;18.12;74.17
61035;BME280;46916;40.564;-7.958;2022-09-24T03:07:56;97363.72;;;18.12;74.34
61035;BME280;46916;40.564;-7.958;2022-09-24T03:09:58;97366.34;;;18.12;74.17
61035;BME280;46916;40.564;-7.958;2022-09-24T03:11:59;97367.66;;;18.16;74.06
61035;BME280;46916;40.564;-7.958;2022-09-24T03:14:00;97367.66;;;18.16;74.01
61035;BME280;46916;40.564;-7.958;2022-09-24T03:16:01;97362.81;;;18.19;73.82
61035;BME280;46916;40.564;-7.958;2022-09-24T03:18:02;97359.34;;;18.19;73.61
61035;BME280;46916;40.564;-7.958;2022-09-24T03:20:03;97364.38;;;18.14;73.69
61035;BME280;46916;40.564;-7.958;2022-09-24T03:22:04;97344.81;;;18.15;73.58
61035;BME280;46916;40.564;-7.958;2022-09-24T03:24:05;97349.09;;;18.16;73.09
61035;BME280;46916;40.564;-7.958;2022-09-24T03:26:06;97345.63;;;18.15;73.07
61035;BME280;46916;40.564;-7.958;2022-09-24T03:28:07;97352.56;;;18.16;72.93
61035;BME280;46916;40.564;-7.958;2022-09-24T03:30:08;97344.47;;;18.18;72.91
61035;BME280;46916;40.564;-7.958;2022-09-24T03:32:27;97347.38;;;18.23;72.61
61035;BME280;46916;40.564;-7.958;2022-09-24T03:34:28;97347.38;;;18.23;72.54
61035;BME280;46916;40.564;-7.958;2022-09-24T03:36:29;97352.88;;;18.21;72.68
61035;BME280;46916;40.564;-7.958;2022-09-24T03:38:31;97346.75;;;18.21;72.83
61035;BME280;46916;40.564;-7.958;2022-09-24T03:40:32;97345.75;;;18.22;72.90
61035;BME280;46916;40.564;-7.958;2022-09-24T03:42:32;97346.75;;;18.21;72.97
61035;BME280;46916;40.564;-7.958;2022-09-24T03:44:34;97339.78;;;18.20;73.02
61035;BME280;46916;40.564;-7.958;2022-09-24T03:46:34;97340.78;;;18.19;73.00
61035;BME280;46916;40.564;-7.958;2022-09-24T03:48:37;97333.84;;;18.18;73.20
61035;BME280;46916;40.564;-7.958;2022-09-24T03:50:38;97332.84;;;18.19;73.33
61035;BME280;46916;40.564;-7.958;2022-09-24T03:52:38;97336.16;;;18.21;73.18
61035;BME280;46916;40.564;-7.958;2022-09-24T03:54:39;97333.13;;;18.24;73.03
61035;BME280;46916;40.564;-7.958;2022-09-24T03:56:40;97329.66;;;18.23;72.96
61035;BME280;46916;40.564;-7.958;2022-09-24T03:58:40;97331.81;;;18.20;72.97
61035;BME280;46916;40.564;-7.958;2022-09-24T04:00:41;97336.31;;;18.19;73.08
61035;BME280;46916;40.564;-7.958;2022-09-24T04:02:42;97332.84;;;18.19;73.14
61035;BME280;46916;40.564;-7.958;2022-09-24T04:04:43;97332.66;;;18.20;73.06
61035;BME280;46916;40.564;-7.958;2022-09-24T04:06:44;97328.91;;;18.15;73.32
61035;BME280;46916;40.564;-7.958;2022-09-24T04:08:44;97327.44;;;18.12;73.38
61035;BME280;46916;40.564;-7.958;2022-09-24T04:10:46;97324.16;;;18.10;73.36
61035;BME280;46916;40.564;-7.958;2022-09-24T04:12:48;97322.13;;;18.12;73.29
61035;BME280;46916;40.564;-7.958;2022-09-24T04:14:49;97319.31;;;18.14;73.20
61035;BME280;46916;40.564;-7.958;2022-09-24T04:16:49;97322.59;;;18.16;72.89
61035;BME280;46916;40.564;-7.958;2022-09-24T04:18:50;97324.06;;;18.18;72.85
61035;BME280;46916;40.564;-7.958;2022-09-24T04:20:56;97323.88;;;18.20;72.88
61035;BME280;46916;40.564;-7.958;2022-09-24T04:22:58;97324.25;;;18.17;72.84
61035;BME280;46916;40.564;-7.958;2022-09-24T04:24:59;97324.25;;;18.17;72.63
61035;BME280;46916;40.564;-7.958;2022-09-24T04:26:59;97327.06;;;18.15;72.69
61035;BME280;46916;40.564;-7.958;2022-09-24T04:29:00;97330.53;;;18.16;72.64
61035;BME280;46916;40.564;-7.958;2022-09-24T04:31:01;97329.56;;;18.17;72.53
61035;BME280;46916;40.564;-7.958;2022-09-24T04:33:01;97334.19;;;18.15;72.59
61035;BME280;46916;40.564;-7.958;2022-09-24T04:35:02;97329.72;;;18.15;72.53
61035;BME280;46916;40.564;-7.958;2022-09-24T04:37:03;97330.25;;;18.11;72.58
61035;BME280;46916;40.564;-7.958;2022-09-24T04:39:05;97336.56;;;18.10;72.70
61035;BME280;46916;40.564;-7.958;2022-09-24T04:41:07;97343.25;;;18.05;72.83
61035;BME280;46916;40.564;-7.958;2022-09-24T04:43:08;97339.94;;;18.03;72.90
61035;BME280;46916;40.564;-7.958;2022-09-24T04:45:09;97335.44;;;18.04;72.59
61035;BME280;46916;40.564;-7.958;2022-09-24T04:47:10;97336.31;;;18.04;72.68
61035;BME280;46916;40.564;-7.958;2022-09-24T04:49:11;97337.94;;;18.05;72.36
61035;BME280;46916;40.564;-7.958;2022-09-24T04:51:11;97336.09;;;18.06;72.35
61035;BME280;46916;40.564;-7.958;2022-09-24T04:53:12;97336.47;;;18.03;72.27
61035;BME280;46916;40.564;-7.958;2022-09-24T04:55:14;97336.00;;;17.99;72.06
61035;BME280;46916;40.564;-7.958;2022-09-24T04:57:15;97333.19;;;18.01;71.82
61035;BME280;46916;40.564;-7.958;2022-09-24T04:59:16;97340.94;;;18.02;71.48
61035;BME280;46916;40.564;-7.958;2022-09-24T05:01:17;97335.81;;;18.01;71.23
61035;BME280;46916;40.564;-7.958;2022-09-24T05:03:17;97338.94;;;18.04;71.27
61035;BME280;46916;40.564;-7.958;2022-09-24T05:05:20;97334.47;;;18.05;71.29
61035;BME280;46916;40.564;-7.958;2022-09-24T05:07:21;97341.41;;;18.06;71.18
61035;BME280;46916;40.564;-7.958;2022-09-24T05:09:22;97343.25;;;18.05;71.26
61035;BME280;46916;40.564;-7.958;2022-09-24T05:11:22;97344.41;;;18.03;71.42
61035;BME280;46916;40.564;-7.958;2022-09-24T05:13:23;97345.88;;;18.05;71.34
61035;BME280;46916;40.564;-7.958;2022-09-24T05:15:24;97346.25;;;18.02;71.30
61035;BME280;46916;40.564;-7.958;2022-09-24T05:17:24;97355.34;;;18.00;71.46
61035;BME280;46916;40.564;-7.958;2022-09-24T05:19:25;97364.50;;;17.97;71.60
61035;BME280;46916;40.564;-7.958;2022-09-24T05:21:25;97364.03;;;17.94;71.63
61035;BME280;46916;40.564;-7.958;2022-09-24T05:23:26;97358.25;;;17.90;71.90
61035;BME280;46916;40.564;-7.958;2022-09-24T05:25:27;97361.91;;;17.89;71.88
61035;BME280;46916;40.564;-7.958;2022-09-24T05:27:28;97361.44;;;17.86;71.88
61035;BME280;46916;40.564;-7.958;2022-09-24T05:29:28;97356.63;;;17.89;71.71
61035;BME280;46916;40.564;-7.958;2022-09-24T05:31:29;97350.59;;;17.95;71.47
61035;BME280;46916;40.564;-7.958;2022-09-24T05:33:30;97350.91;;;18.00;71.37
61035;BME280;46916;40.564;-7.958;2022-09-24T05:35:30;97348.25;;;18.00;71.25
61035;BME280;46916;40.564;-7.958;2022-09-24T05:37:31;97348.88;;;18.02;71.19
61035;BME280;46916;40.564;-7.958;2022-09-24T05:39:31;97341.75;;;18.03;70.93
61035;BME280;46916;40.564;-7.958;2022-09-24T05:41:32;97348.06;;;18.02;70.96
61035;BME280;46916;40.564;-7.958;2022-09-24T05:43:33;97351.06;;;17.99;70.97
61035;BME280;46916;40.564;-7.958;2022-09-24T05:45:33;97353.09;;;17.97;70.93
61035;BME280;46916;40.564;-7.958;2022-09-24T05:47:34;97366.50;;;17.95;70.90
61035;BME280;46916;40.564;-7.958;2022-09-24T05:49:35;97368.50;;;17.93;71.04
61035;BME280;46916;40.564;-7.958;2022-09-24T05:51:36;97362.56;;;17.91;71.30
61035;BME280;46916;40.564;-7.958;2022-09-24T05:53:37;97361.72;;;17.91;71.35
61035;BME280;46916;40.564;-7.958;2022-09-24T05:55:37;97358.91;;;17.92;71.40
61035;BME280;46916;40.564;-7.958;2022-09-24T05:57:39;97354.25;;;17.94;71.46
61035;BME280;46916;40.564;-7.958;2022-09-24T05:59:39;97366.50;;;17.95;71.52
61035;BME280;46916;40.564;-7.958;2022-09-24T06:01:40;97366.88;;;17.92;71.60
61035;BME280;46916;40.564;-7.958;2022-09-24T06:03:40;97364.09;;;17.86;71.95
61035;BME280;46916;40.564;-7.958;2022-09-24T06:05:46;97363.44;;;17.83;72.08
61035;BME280;46916;40.564;-7.958;2022-09-24T06:07:47;97366.75;;;17.86;71.94
61035;BME280;46916;40.564;-7.958;2022-09-24T06:09:48;97372.03;;;17.86;71.88
61035;BME280;46916;40.564;-7.958;2022-09-24T06:11:50;97370.22;;;17.86;71.91
61035;BME280;46916;40.564;-7.958;2022-09-24T06:13:53;97368.72;;;17.83;71.85
61035;BME280;46916;40.564;-7.958;2022-09-24T06:16:05;97375.84;;;17.83;71.69
61035;BME280;46916;40.564;-7.958;2022-09-24T06:18:08;97381.16;;;17.83;71.63
61035;BME280;46916;40.564;-7.958;2022-09-24T06:20:09;97378.69;;;17.81;71.41
61035;BME280;46916;40.564;-7.958;2022-09-24T06:22:10;97382.16;;;17.82;71.45
61035;BME280;46916;40.564;-7.958;2022-09-24T06:24:10;97387.66;;;17.80;71.46
61035;BME280;46916;40.564;-7.958;2022-09-24T06:26:12;97380.25;;;17.76;71.57
61035;BME280;46916;40.564;-7.958;2022-09-24T06:28:13;97382.88;;;17.76;71.38
61035;BME280;46916;40.564;-7.958;2022-09-24T06:30:14;97389.16;;;17.75;71.43
61035;BME280;46916;40.564;-7.958;2022-09-24T06:32:15;97393.47;;;17.76;71.31
61035;BME280;46916;40.564;-7.958;2022-09-24T06:34:15;97386.50;;;17.75;71.22
61035;BME280;46916;40.564;-7.958;2022-09-24T06:36:16;97389.31;;;17.73;71.31
61035;BME280;46916;40.564;-7.958;2022-09-24T06:38:17;97386.50;;;17.75;71.31
61035;BME280;46916;40.564;-7.958;2022-09-24T06:40:18;97385.84;;;17.73;70.95
61035;BME280;46916;40.564;-7.958;2022-09-24T06:42:18;97387.69;;;17.72;71.27
61035;BME280;46916;40.564;-7.958;2022-09-24T06:44:20;97395.78;;;17.71;71.41
61035;BME280;46916;40.564;-7.958;2022-09-24T06:46:21;97394.13;;;17.70;71.25
61035;BME280;46916;40.564;-7.958;2022-09-24T06:48:25;97395.13;;;17.69;71.28
61035;BME280;46916;40.564;-7.958;2022-09-24T06:50:27;97400.44;;;17.69;71.32
61035;BME280;46916;40.564;-7.958;2022-09-24T06:52:29;97401.44;;;17.68;71.49
61035;BME280;46916;40.564;-7.958;2022-09-24T06:54:29;97401.78;;;17.65;71.33
61035;BME280;46916;40.564;-7.958;2022-09-24T06:56:30;97402.94;;;17.62;71.70
61035;BME280;46916;40.564;-7.958;2022-09-24T06:58:31;97396.00;;;17.61;71.73
61035;BME280;46916;40.564;-7.958;2022-09-24T07:00:34;97404.97;;;17.60;72.06
61035;BME280;46916;40.564;-7.958;2022-09-24T07:02:35;97406.78;;;17.60;72.13
61035;BME280;46916;40.564;-7.958;2022-09-24T07:04:36;97413.88;;;17.59;72.24
61035;BME280;46916;40.564;-7.958;2022-09-24T07:06:37;97414.56;;;17.61;72.31
61035;BME280;46916;40.564;-7.958;2022-09-24T07:08:56;97423.13;;;17.63;72.52
61035;BME280;46916;40.564;-7.958;2022-09-24T07:10:57;97425.63;;;17.65;72.68
61035;BME280;46916;40.564;-7.958;2022-09-24T07:12:57;97424.63;;;17.66;72.69
61035;BME280;46916;40.564;-7.958;2022-09-24T07:14:58;97422.97;;;17.65;72.84
61035;BME280;46916;40.564;-7.958;2022-09-24T07:16:59;97417.00;;;17.63;72.98
61035;BME280;46916;40.564;-7.958;2022-09-24T07:19:00;97410.38;;;17.67;73.17
61035;BME280;46916;40.564;-7.958;2022-09-24T07:21:01;97411.16;;;17.75;72.89
61035;BME280;46916;40.564;-7.958;2022-09-24T07:23:06;97400.53;;;17.83;72.72
61035;BME280;46916;40.564;-7.958;2022-09-24T07:25:09;97402.97;;;17.93;72.51
61035;BME280;46916;40.564;-7.958;2022-09-24T07:27:10;97401.69;;;18.04;72.14
61035;BME280;46916;40.564;-7.958;2022-09-24T07:29:11;97408.41;;;18.15;71.76
61035;BME280;46916;40.564;-7.958;2022-09-24T07:31:12;97398.41;;;18.25;71.42
61035;BME280;46916;40.564;-7.958;2022-09-24T07:33:12;97401.63;;;18.35;71.11
61035;BME280;46916;40.564;-7.958;2022-09-24T07:35:13;97406.31;;;18.48;70.72
61035;BME280;46916;40.564;-7.958;2022-09-24T07:37:14;97409.00;;;18.63;70.25
61035;BME280;46916;40.564;-7.958;2022-09-24T07:39:15;97404.91;;;18.75;69.79
61035;BME280;46916;40.564;-7.958;2022-09-24T07:41:16;97411.16;;;18.82;69.52
61035;BME280;46916;40.564;-7.958;2022-09-24T07:43:20;97410.06;;;18.91;69.32
61035;BME280;46916;40.564;-7.958;2022-09-24T07:45:22;97402.00;;;18.99;68.72
61035;BME280;46916;40.564;-7.958;2022-09-24T07:47:23;97409.50;;;19.11;68.44
61035;BME280;46916;40.564;-7.958;2022-09-24T07:49:23;97407.47;;;19.13;68.40
61035;BME280;46916;40.564;-7.958;2022-09-24T07:51:25;97404.72;;;19.21;68.16
61035;BME280;46916;40.564;-7.958;2022-09-24T07:53:27;97411.56;;;19.30;68.07
61035;BME280;46916;40.564;-7.958;2022-09-24T07:55:28;97406.63;;;19.42;67.79
61035;BME280;46916;40.564;-7.958;2022-09-24T07:57:28;97407.31;;;19.50;67.88
61035;BME280;46916;40.564;-7.958;2022-09-24T07:59:29;97412.00;;;19.48;67.48
61035;BME280;46916;40.564;-7.958;2022-09-24T08:01:30;97415.03;;;19.45;67.17
61035;BME280;46916;40.564;-7.958;2022-09-24T08:03:30;97413.41;;;19.44;67.40
61035;BME280;46916;40.564;-7.958;2022-09-24T08:05:32;97413.66;;;19.49;66.95
61035;BME280;46916;40.564;-7.958;2022-09-24T08:07:32;97409.41;;;19.55;66.68
61035;BME280;46916;40.564;-7.958;2022-09-24T08:09:33;97407.94;;;19.67;66.25
61035;BME280;46916;40.564;-7.958;2022-09-24T08:11:34;97414.97;;;19.75;65.65
61035;BME280;46916;40.564;-7.958;2022-09-24T08:13:35;97416.13;;;19.87;65.31
61035;BME280;46916;40.564;-7.958;2022-09-24T08:15:36;97415.84;;;19.97;64.89
61035;BME280;46916;40.564;-7.958;2022-09-24T08:17:36;97418.38;;;20.05;64.50
61035;BME280;46916;40.564;-7.958;2022-09-24T08:19:37;97429.06;;;20.12;64.06
61035;BME280;46916;40.564;-7.958;2022-09-24T08:21:42;97429.06;;;20.12;64.08
61035;BME280;46916;40.564;-7.958;2022-09-24T08:23:43;97427.22;;;20.12;63.75
61035;BME280;46916;40.564;-7.958;2022-09-24T08:25:44;97430.31;;;20.16;63.96
61035;BME280;46916;40.564;-7.958;2022-09-24T08:27:45;97429.94;;;20.19;63.55
61035;BME280;46916;40.564;-7.958;2022-09-24T08:29:45;97428.75;;;20.21;63.70
61035;BME280;46916;40.564;-7.958;2022-09-24T08:31:46;97438.13;;;20.17;63.30
61035;BME280;46916;40.564;-7.958;2022-09-24T08:33:47;97437.84;;;20.12;63.42
61035;BME280;46916;40.564;-7.958;2022-09-24T08:35:50;97437.34;;;20.23;62.90
61035;BME280;46916;40.564;-7.958;2022-09-24T08:37:54;97442.22;;;20.41;61.83
61035;BME280;46916;40.564;-7.958;2022-09-24T08:39:55;97450.53;;;20.53;61.12
61035;BME280;46916;40.564;-7.958;2022-09-24T08:42:00;97457.16;;;20.64;60.72
61035;BME280;46916;40.564;-7.958;2022-09-24T08:46:17;97454.16;;;20.73;60.14
61035;BME280;46916;40.564;-7.958;2022-09-24T08:48:40;97453.16;;;20.74;60.09
61035;BME280;46916;40.564;-7.958;2022-09-24T08:50:52;97452.34;;;20.74;59.89
61035;BME280;46916;40.564;-7.958;2022-09-24T08:57:53;97453.59;;;20.78;59.80
61035;BME280;46916;40.564;-7.958;2022-09-24T08:59:57;97450.59;;;20.88;59.85
61035;BME280;46916;40.564;-7.958;2022-09-24T09:07:28;97449.78;;;21.22;59.25
61035;BME280;46916;40.564;-7.958;2022-09-24T09:09:15;97450.50;;;21.37;58.02
61035;BME280;46916;40.564;-7.958;2022-09-24T09:11:20;97455.88;;;21.44;56.71
61035;BME280;46916;40.564;-7.958;2022-09-24T09:13:29;97454.69;;;21.53;57.39
61035;BME280;46916;40.564;-7.958;2022-09-24T09:15:34;97467.19;;;21.59;56.63
61035;BME280;46916;40.564;-7.958;2022-09-24T09:17:57;97461.03;;;21.59;55.54
61035;BME280;46916;40.564;-7.958;2022-09-24T09:19:59;97455.09;;;21.57;55.65
61035;BME280;46916;40.564;-7.958;2022-09-24T09:22:12;97449.34;;;21.53;54.44
61035;BME280;46916;40.564;-7.958;2022-09-24T09:24:19;97449.31;;;21.46;54.93
61035;BME280;46916;40.564;-7.958;2022-09-24T09:26:24;97451.13;;;21.39;55.23
61035;BME280;46916;40.564;-7.958;2022-09-24T09:28:27;97448.66;;;21.38;54.87
61035;BME280;46916;40.564;-7.958;2022-09-24T09:30:38;97449.50;;;21.45;54.80
61035;BME280;46916;40.564;-7.958;2022-09-24T09:44:23;97454.63;;;21.40;54.09
61035;BME280;46916;40.564;-7.958;2022-09-24T09:46:30;97443.16;;;21.39;54.21
61035;BME280;46916;40.564;-7.958;2022-09-24T09:48:56;97443.53;;;21.36;54.07
61035;BME280;46916;40.564;-7.958;2022-09-24T09:51:01;97446.81;;;21.38;53.94
61035;BME280;46916;40.564;-7.958;2022-09-24T09:53:04;97447.25;;;21.42;54.21
61035;BME280;46916;40.564;-7.958;2022-09-24T09:55:06;97440.06;;;21.42;53.85
61035;BME280;46916;40.564;-7.958;2022-09-24T09:57:11;97444.78;;;21.40;53.69
61035;BME280;46916;40.564;-7.958;2022-09-24T09:59:20;97435.75;;;21.41;53.92
61035;BME280;46916;40.564;-7.958;2022-09-24T10:01:30;97436.16;;;21.38;54.28
61035;BME280;46916;40.564;-7.958;2022-09-24T10:03:45;97441.09;;;21.41;53.92
61035;BME280;46916;40.564;-7.958;2022-09-24T10:05:57;97437.41;;;21.42;53.90
61035;BME280;46916;40.564;-7.958;2022-09-24T10:07:58;97434.56;;;21.44;53.64
61035;BME280;46916;40.564;-7.958;2022-09-24T10:10:21;97436.63;;;21.48;53.64
61035;BME280;46916;40.564;-7.958;2022-09-24T10:12:23;97438.69;;;21.53;53.24
61035;BME280;46916;40.564;-7.958;2022-09-24T10:14:26;97430.06;;;21.51;53.03
61035;BME280;46916;40.564;-7.958;2022-09-24T10:16:26;97438.69;;;21.53;52.89
61035;BME280;46916;40.564;-7.958;2022-09-24T10:18:31;97444.84;;;21.54;53.06
61035;BME280;46916;40.564;-7.958;2022-09-24T10:20:33;97438.47;;;21.48;52.70
61035;BME280;46916;40.564;-7.958;2022-09-24T10:22:36;97438.03;;;21.44;53.05
61035;BME280;46916;40.564;-7.958;2022-09-24T10:24:41;97429.41;;;21.42;52.99
61035;BME280;46916;40.564;-7.958;2022-09-24T10:26:44;97427.81;;;21.48;52.42
61035;BME280;46916;40.564;-7.958;2022-09-24T10:28:48;97428.41;;;21.43;52.66
61035;BME280;46916;40.564;-7.958;2022-09-24T10:31:25;97428.81;;;21.47;53.47
61035;BME280;46916;40.564;-7.958;2022-09-24T10:33:42;97423.69;;;21.45;52.61
61035;BME280;46916;40.564;-7.958;2022-09-24T10:35:43;97425.94;;;21.42;52.88
61035;BME280;46916;40.564;-7.958;2022-09-24T10:37:55;97422.44;;;21.41;53.60
61035;BME280;46916;40.564;-7.958;2022-09-24T10:40:12;97428.63;;;21.48;52.88
61035;BME280;46916;40.564;-7.958;2022-09-24T10:42:26;97424.72;;;21.44;52.03
61035;BME280;46916;40.564;-7.958;2022-09-24T10:44:34;97419.31;;;21.31;52.81
61035;BME280;46916;40.564;-7.958;2022-09-24T10:51:11;97405.09;;;21.17;53.33
61035;BME280;46916;40.564;-7.958;2022-09-24T10:53:27;97405.28;;;21.16;53.33
61035;BME280;46916;40.564;-7.958;2022-09-24T10:55:35;97403.22;;;21.11;53.85
61035;BME280;46916;40.564;-7.958;2022-09-24T11:04:44;97398.72;;;21.12;53.04
61035;BME280;46916;40.564;-7.958;2022-09-24T11:16:13;97397.97;;;20.90;52.58
61035;BME280;46916;40.564;-7.958;2022-09-24T11:18:29;97396.91;;;20.84;53.16
61035;BME280;46916;40.564;-7.958;2022-09-24T11:20:42;97388.72;;;20.79;52.56
61035;BME280;46916;40.564;-7.958;2022-09-24T11:25:53;97382.31;;;20.73;53.36
61035;BME280;46916;40.564;-7.958;2022-09-24T11:30:15;97380.75;;;20.86;53.25
61035;BME280;46916;40.564;-7.958;2022-09-24T11:32:39;97377.31;;;20.92;53.29
61035;BME280;46916;40.564;-7.958;2022-09-24T11:36:10;97382.69;;;20.98;52.51
61035;BME280;46916;40.564;-7.958;2022-09-24T11:40:02;97373.28;;;21.09;51.56
61035;BME280;46916;40.564;-7.958;2022-09-24T11:50:15;97361.38;;;21.46;51.41
61035;BME280;46916;40.564;-7.958;2022-09-24T11:52:30;97360.59;;;21.52;51.35
61035;BME280;46916;40.564;-7.958;2022-09-24T11:54:44;97359.56;;;21.54;51.41
61035;BME280;46916;40.564;-7.958;2022-09-24T11:56:54;97354.25;;;21.54;51.26
61035;BME280;46916;40.564;-7.958;2022-09-24T12:01:34;97346.22;;;21.47;50.46
61035;BME280;46916;40.564;-7.958;2022-09-24T12:03:45;97343.56;;;21.47;50.54
61035;BME280;46916;40.564;-7.958;2022-09-24T12:06:22;97353.00;;;21.49;50.40